Extreme weather reports worldwide

Lowest temperatures

Station
 
Location
 
Name
 
Wind
Knots
Gust
Knots
Vis
SM
Temp/Dew
C
Baro
inHg
METAR
 
YKS UEEE Yakutsk, RU Yakutsk Airport 0 0.09 -47/-52 29.94 UEEE 280900Z 00000MPS 0150 R23L/0500N FG NSC M47/M52 Q1014 R23L/490150 NOSIG RMK QFE752
PYJ UERP Yakutia, RU Polyarny Airport 4 4.35 -40/-44 29.73 UERP 280900Z 05002MPS 7000 NSC M40/M44 Q1007 NOSIG RMK QFE711
YUX CYUX Hall Beach, CA Hall Beach Airport 12 5 -39/-43 29.50 CYUX 280919Z AUTO 33012KT 5SM HZ CLR M39/M43 A2950 RMK SLP993
MJZ UERR Mirny, RU Mirny Airport 6 6.21 -38/-42 29.68 UERR 280900Z 08003MPS 9999 -SN NSC M38/M42 Q1005 R07/450338 NOSIG RMK QFE724/0965
YFB CYFB Iqaluit, CA Iqaluit Airport 2 15 -38/-42 29.67 CYFB 280900Z 36002KT 15SM SKC M38/M42 A2967 RMK FROIN SLP055

Station
 
Location
 
Name
 
Wind
Knots
Gust
Knots
Vis
SM
Temp/Dew
C
Baro
inHg
METAR
 
YZS CYZS Coral Harbour, CA Coral Harbour Airport 12 15 -37/-41 29.49 CYZS 280900Z 35012KT 15SM IC SCT042 BKN070 M37/M41 A2949 RMK SC4AS2 SLP001
YRT CYRT Rankin Inlet, CA Rankin Inlet Airport 17 6 -37/-41 29.71 CYRT 280900Z 33017KT 6SM IC BLSN SCT100 M37/M41 A2971 RMK AC3 SLP068
YPO CYPO Peawanuck, CA Peawanuck Airport 7 9 -36/-39 29.88 CYPO 280900Z AUTO 29007KT 9SM CLR M36/M39 A2988 RMK SLP132
YER CYER Fort Severn, CA Fort Severn Airport 8 9 -36/-39 29.94 CYER 280900Z AUTO 27008KT 9SM SCT240 M36/M39 A2994 RMK SLP143
MSA CZMD Muskrat Dam, CA Muskrat Dam Airport 6 9 -35/-39 29.97 CZMD 280900Z AUTO 22006KT 9SM CLR M35/M39 A2997 RMK SLP195
YTL CYTL Big Trout Lake, CA Big Trout Lake Airport 5 9 -35/-39 29.97 CYTL 280900Z AUTO 26005KT 9SM CLR M35/M39 A2997 RMK SLP185
YEK CYEK Arviat, CA Arviat Airport 15 9 -35/-39 29.83 CYEK 280900Z AUTO 32015KT 9SM CLR M35/M39 A2983 RMK SLP107
YBK CYBK Baker Lake, CA Baker Lake Airport 20 15 -35/-39 29.83 CYBK 280900Z 31020KT 15SM IC DRSN FEW160 M35/M39 A2983 RMK AC1 SLP106
YPH CYPH Inukjuak, CA Inukjuak Airport 2 7 -34/-38 29.64 CYPH 280928Z AUTO 05002KT 7SM CLR M34/M38 A2964 RMK SLP045
YPX CYPX Puvirnituq, CA Puvirnituq Airport 5 9 -34/-38 29.65 CYPX 280900Z AUTO 34005KT 9SM CLR M34/M38 A2965 RMK SLP047
CXDK -34/-37 CXDK 280900Z AUTO M34/M38 RMK AO1 SOG 36 1012 SLP491 T13401375
FYU PFYU Fort Yukon, US Fort Yukon Airport 0 4 -34/ 30.92 PFYU 280856Z AUTO 00000KT 4SM HZ CLR M34/ A3092 RMK AO2 SLP500 6//// T1344 412391361 58020 FZRANO
YIO CYIO Pond Inlet, CA Pond Inlet Airport 8 9 -33/-36 29.55 CYIO 280900Z AUTO 18008KT 9SM CLR M33/M36 A2955 RMK SLP019
YGX CYGX Gillam, CA Gillam Airport 7 15 -33/-37 29.98 CYGX 280900Z 26007KT 15SM -SN SCT080 M33/M37 A2998 RMK AC3 SLP181
CWLX -33/-36 29.39 CWLX 280900Z AUTO ///// ////SM ////// M33/M36 A2939
CBAR -33/-37 30.96 CBAR 280900Z AUTO ///// ////SM NCD M33/M37 A3096
ARC PARC Arctic Village, US Arctic Village Airport 4 10 -33/-36 30.71 PARC 280856Z AUTO 29004KT 10SM CLR M34/M37 A3071 RMK AO2 SLP518 T13391367 412171339 56014 FZRANO
CYUS 7 -32/-36 29.66 CYUS 280927Z AUTO 34007KT ////SM //// BKN003 BKN024 OVC029 M32/M36 A2966
ZUM CZUM Churchill Falls, CA Churchill Falls Airport 6 9 -32/-35 29.89 CZUM 280900Z AUTO 12006KT 9SM CLR M32/M35 A2989 RMK SLP185
YTH CYTH Thompson, CA Thompson Airport 7 15 -32/-36 30.05 CYTH 280900Z 28007KT 15SM FEW070 M32/M36 A3005 RMK AC1 SLP214
YIV CYIV Island Lake, CA Island Lake Airport 6 9 -32/-35 30.03 CYIV 280900Z AUTO 27006KT 9SM FEW091 M32/M35 A3003 RMK SLP207
CXTN 0 -32/-36 CXTN 280900Z AUTO 00000KT M33/M36 RMK AO1 SOG 28 1017 SLP468 T13271362
CWOB 7 -32/-35 CWOB 280900Z AUTO 24007KT ////SM ////// M32/M35 A////
CWJC Ennadai, CA Ennadai Lake Airport 17 -32/-35 CWJC 280900Z AUTO 30017KT M33/M36 RMK AO1 SOG 03 8006 PK WND 31019/0859 SLP176 T13251359
XTL CYBQ Tadoule Lake, CA Tadoule Lake Airport 9 16 9 -31/-34 29.93 CYBQ 280927Z AUTO 30009G16KT 9SM FEW071 M31/M34 A2993 RMK SLP183
ZSJ CZSJ Sandy Lake, CA Sandy Lake Airport 2 9 -31/-35 30.01 CZSJ 280900Z AUTO VRB02KT 9SM CLR M31/M35 A3001 RMK SLP205
YYH CYYH Taloyoak, CA Taloyoak Airport 4 15 -31/-34 29.67 CYYH 280900Z 16004KT 15SM IC FEW080 OVC150 M31/M34 A2967 RMK AC2AC6 SLP054
YCK CYVL Colville Lake, CA Tommy Kochon Airport 6 9 -31/-35 30.87 CYVL 280900Z AUTO 18006KT 9SM CLR M31/M35 A3087 RMK SLP508
CXLL -31/-34 CXLL 280900Z AUTO M31/M34 RMK AO1 SOG 43 1009 SLP498 T13121343
CXAT 1 -31/-33 CXAT 280900Z AUTO 19001KT M31/M34 RMK AO1 SOG 07 6012 SLP028 T13111335
CWND -31/-34 CWND 280900Z AUTO M32/M35 RMK AO1 SLP458 T13171349 56017
CWIL -31/-34 29.90 CWIL 280900Z AUTO ///// ////SM ////// M31/M34 A2990
K9D7 8 10 -30/-32 30.22 K9D7 280915Z AUTO 30008KT 10SM FEW007 SCT025 M30/M32 A3022 RMK AO2 TSNO
YNE CYNE Norway House, CA Norway House Airport 4 9 -30/-33 30.11 CYNE 280908Z AUTO 29004KT 9SM CLR M30/M33 A3011 RMK SLP235
YHK CYHK Gjoa Haven, CA Gjoa Haven Airport 20 27 0.75 -30/-34 29.72 CYHK 280907Z AUTO 33020G27KT 3/4SM -SN VV004 M30/M34 A2972 RMK SLP075
CZKD 4 -30/-33 CZKD 280900Z AUTO 27004KT M31/M34 RMK AO1 SOG 40 3003 SLP197 T13051337
YYQ CYYQ Churchill, CA Churchill Airport 12 10 -30/-34 29.91 CYYQ 280900Z 30012KT 10SM IC DRSN FEW044 M30/M34 A2991 RMK SC2 SLP135
YYL CYYL Lynn Lake, CA Lynn Lake Airport 9 9 -30/-34 30.05 CYYL 280900Z AUTO 30009KT 9SM CLR M30/M34 A3005 RMK SLP232
YWG CYWG Winnipeg, CA Winnipeg / James Armstrong Richardson International Airport 8 15 -30/-33 30.24 CYWG 280900Z 27008KT 15SM BKN020 M30/M33 A3024 RMK SC5 SLP272
YVP CYVP Kuujjuaq, CA Kuujjuaq Airport 0 12 -30/-34 29.77 CYVP 280900Z 00000KT 12SM -SN SCT055 OVC094 M30/M34 A2977 RMK SC3AS5 SLP089
YPL CYPL Pickle Lake, CA Pickle Lake Airport 6 9 -30/-33 29.95 CYPL 280900Z AUTO 29006KT 9SM CLR M30/M33 A2995 RMK SLP193
YLH CYLH Lansdowne House, CA Lansdowne House Airport 5 9 -30/-33 29.95 CYLH 280900Z AUTO 28005KT 9SM CLR M30/M33 A2995 RMK SLP178
YDN CYDN Dauphin, CA Dauphin Barker Airport 8 9 -30/-33 30.22 CYDN 280900Z AUTO 26008KT 9SM CLR M30/M33 A3022 RMK SLP276
YBR CYBR Brandon, CA Brandon Municipal Airport 6 15 -30/-34 30.20 CYBR 280900Z 32006KT 15SM FEW140 M30/M34 A3020 RMK AC2 SLP282
CWKM 6 -30/-32 30.79 CWKM 280900Z AUTO 26006KT ////SM OVC003 M30/M32 A3079